createdAt,value
2022-09-15T00:01:45.443Z,99296.50
2022-09-15T00:04:48.648Z,99275.78
2022-09-15T00:07:51.294Z,99264.41
2022-09-15T00:11:06.031Z,99262.22
2022-09-15T00:14:09.168Z,99249.13
2022-09-15T00:17:12.343Z,99206.78
2022-09-15T00:20:16.333Z,99201.06
2022-09-15T00:23:19.296Z,99197.47
2022-09-15T00:26:24.648Z,99196.31
2022-09-15T00:29:27.764Z,99215.56
2022-09-15T00:32:31.000Z,99241.13
2022-09-15T00:35:37.906Z,99267.06
2022-09-15T00:38:41.186Z,99272.09
2022-09-15T00:41:44.557Z,99301.56
2022-09-15T00:44:59.119Z,99305.25
2022-09-15T00:48:04.433Z,99315.78
2022-09-15T00:51:09.228Z,99325.53
2022-09-15T00:54:17.565Z,99324.56
2022-09-15T00:57:27.380Z,99333.88
2022-09-15T01:00:30.857Z,99323.19
2022-09-15T01:03:35.622Z,99318.22
2022-09-15T01:06:45.248Z,99315.72
2022-09-15T01:09:58.675Z,99307.44
2022-09-15T01:13:06.925Z,99307.50
2022-09-15T01:16:12.888Z,99324.66
2022-09-15T01:19:34.226Z,99314.44
2022-09-15T01:22:58.429Z,99307.22
2022-09-15T01:26:51.706Z,99320.59
2022-09-15T01:30:23.043Z,99322.91
2022-09-15T01:33:39.507Z,99317.31
2022-09-15T01:36:52.507Z,99311.62
2022-09-15T01:39:58.877Z,99309.94
2022-09-15T01:43:05.402Z,99312.88
2022-09-15T01:46:09.826Z,99313.34
2022-09-15T01:49:17.707Z,99324.66
2022-09-15T01:52:23.886Z,99327.28
2022-09-15T01:55:38.022Z,99332.88
2022-09-15T01:58:43.923Z,99318.03
2022-09-15T02:01:57.429Z,99318.88
2022-09-15T02:05:25.747Z,99318.94
2022-09-15T02:08:58.617Z,99329.81
2022-09-15T02:12:12.368Z,99326.56
2022-09-15T02:15:27.327Z,99327.03
2022-09-15T02:18:48.591Z,99317.47
2022-09-15T02:21:59.326Z,99324.63
2022-09-15T02:25:09.973Z,99316.78
2022-09-15T02:28:15.303Z,99320.19
2022-09-15T02:31:23.265Z,99324.31
2022-09-15T02:34:31.505Z,99327.69
2022-09-15T02:37:37.049Z,99329.91
2022-09-15T02:40:43.381Z,99332.94
2022-09-15T02:43:50.381Z,99336.59
2022-09-15T02:46:53.317Z,99343.19
2022-09-15T02:49:57.160Z,99341.28
2022-09-15T02:53:00.139Z,99339.44
2022-09-15T02:56:05.981Z,99344.91
2022-09-15T02:59:09.026Z,99336.19
2022-09-15T03:02:12.588Z,99335.19
2022-09-15T03:05:17.085Z,99323.03
2022-09-15T03:08:20.268Z,99318.03
2022-09-15T03:11:26.795Z,99329.69
2022-09-15T03:14:32.614Z,99320.53
2022-09-15T03:17:37.486Z,99320.69
2022-09-15T03:20:40.632Z,99316.34
2022-09-15T03:23:43.414Z,99331.06
2022-09-15T03:26:47.832Z,99323.37
2022-09-15T03:29:50.810Z,99322.84
2022-09-15T03:32:54.012Z,99327.28
2022-09-15T03:35:57.281Z,99326.62
2022-09-15T03:39:00.631Z,99320.44
2022-09-15T03:42:04.245Z,99320.44
2022-09-15T03:45:07.851Z,99320.13
2022-09-15T03:48:10.608Z,99316.00
2022-09-15T03:51:14.347Z,99309.22
2022-09-15T03:54:17.795Z,99316.91
2022-09-15T03:57:20.694Z,99317.31
2022-09-15T04:00:23.570Z,99314.59
2022-09-15T04:03:26.935Z,99314.69
2022-09-15T04:06:29.927Z,99325.66
2022-09-15T04:09:33.000Z,99327.69
2022-09-15T04:12:36.369Z,99338.69
2022-09-15T04:15:39.493Z,99344.59
2022-09-15T04:18:42.842Z,99346.41
2022-09-15T04:21:47.512Z,99350.63
2022-09-15T04:24:50.418Z,99343.34
2022-09-15T04:27:54.207Z,99344.72
2022-09-15T04:31:09.684Z,99346.50
2022-09-15T04:34:12.874Z,99345.06
2022-09-15T04:37:15.788Z,99360.63
2022-09-15T04:40:18.912Z,99361.97
2022-09-15T04:43:22.289Z,99369.16
2022-09-15T04:46:26.109Z,99355.44
2022-09-15T04:49:29.333Z,99351.53
2022-09-15T04:52:32.633Z,99350.25
2022-09-15T04:55:36.138Z,99353.37
2022-09-15T04:58:45.512Z,99352.94
2022-09-15T05:01:48.743Z,99352.94
2022-09-15T05:04:52.268Z,99338.03
2022-09-15T05:07:54.895Z,99338.09
2022-09-15T05:11:02.906Z,99334.06
2022-09-15T05:14:06.435Z,99337.53
2022-09-15T05:17:09.527Z,99348.75
2022-09-15T05:20:12.404Z,99370.28
2022-09-15T05:23:15.405Z,99355.81
2022-09-15T05:26:22.682Z,99374.63
2022-09-15T05:29:25.889Z,99392.78
2022-09-15T05:32:28.747Z,99395.75
2022-09-15T05:35:31.897Z,99388.78
2022-09-15T05:38:35.107Z,99401.34
2022-09-15T05:41:38.189Z,99407.75
2022-09-15T05:44:41.096Z,99406.63
2022-09-15T05:47:44.156Z,99403.50
2022-09-15T05:50:51.411Z,99413.38
2022-09-15T05:53:54.204Z,99411.75
2022-09-15T05:56:57.047Z,99408.13
2022-09-15T06:00:00.081Z,99404.06
2022-09-15T06:03:03.710Z,99404.72
2022-09-15T06:06:07.309Z,99390.28
2022-09-15T06:09:09.896Z,99395.09
2022-09-15T06:12:12.896Z,99395.53
2022-09-15T06:15:15.959Z,99410.22
2022-09-15T06:18:19.140Z,99404.97
2022-09-15T06:21:24.486Z,99401.69
2022-09-15T06:24:27.522Z,99394.47
2022-09-15T06:27:30.145Z,99404.66
2022-09-15T06:30:33.362Z,99416.69
2022-09-15T06:33:36.537Z,99430.06
2022-09-15T06:36:40.377Z,99425.22
2022-09-15T06:39:44.334Z,99427.59
2022-09-15T06:42:47.562Z,99436.69
2022-09-15T06:45:50.803Z,99438.19
2022-09-15T06:48:54.508Z,99437.75
2022-09-15T06:51:58.057Z,99436.44
2022-09-15T06:55:00.942Z,99440.75
2022-09-15T06:58:04.294Z,99437.25
2022-09-15T07:01:11.483Z,99447.16
2022-09-15T07:04:14.407Z,99443.66
2022-09-15T07:07:17.263Z,99448.22
2022-09-15T07:10:20.282Z,99442.94
2022-09-15T07:13:24.201Z,99450.63
2022-09-15T07:16:27.305Z,99460.87
2022-09-15T07:19:30.407Z,99467.19
2022-09-15T07:22:33.001Z,99472.47
2022-09-15T07:25:36.210Z,99468.53
2022-09-15T07:28:40.471Z,99470.47
2022-09-15T07:31:43.495Z,99473.13
2022-09-15T07:34:46.710Z,99478.56
2022-09-15T07:37:51.829Z,99473.63
2022-09-15T07:40:54.642Z,99478.28
2022-09-15T07:43:59.333Z,99480.78
2022-09-15T07:47:02.160Z,99479.59
2022-09-15T07:50:06.650Z,99479.12
2022-09-15T07:53:09.643Z,99478.31
2022-09-15T07:56:13.070Z,99477.63
2022-09-15T07:59:16.007Z,99470.84
2022-09-15T08:02:21.372Z,99482.44
2022-09-15T08:05:28.257Z,99491.00
2022-09-15T08:08:31.168Z,99489.59
2022-09-15T08:11:34.495Z,99474.91
2022-09-15T08:14:37.822Z,99477.00
2022-09-15T08:17:41.711Z,99484.97
2022-09-15T08:20:44.887Z,99478.53
2022-09-15T08:23:52.885Z,99481.19
2022-09-15T08:26:55.707Z,99499.19
2022-09-15T08:29:58.981Z,99489.13
2022-09-15T08:33:01.874Z,99487.44
2022-09-15T08:36:08.289Z,99480.03
2022-09-15T08:39:11.705Z,99489.72
2022-09-15T08:42:17.754Z,99472.25
2022-09-15T08:45:26.020Z,99460.31
2022-09-15T08:48:40.214Z,99457.41
2022-09-15T08:51:48.596Z,99459.34
2022-09-15T08:54:56.042Z,99463.06
2022-09-15T08:57:58.858Z,99455.75
2022-09-15T09:01:06.164Z,99457.06
2022-09-15T09:04:22.518Z,99445.22
2022-09-15T09:07:37.682Z,99430.84
2022-09-15T09:10:52.770Z,99434.00
2022-09-15T09:14:04.098Z,99426.12
2022-09-15T09:17:29.169Z,99419.81
2022-09-15T09:20:41.386Z,99415.47
2022-09-15T09:24:04.148Z,99416.69
2022-09-15T09:27:20.144Z,99411.94
2022-09-15T09:30:24.308Z,99399.28
2022-09-15T09:33:38.859Z,99396.75
2022-09-15T09:36:42.794Z,99403.19
2022-09-15T09:39:47.532Z,99405.56
2022-09-15T09:42:50.598Z,99407.63
2022-09-15T09:45:54.082Z,99407.50
2022-09-15T09:49:03.131Z,99403.50
2022-09-15T09:52:06.461Z,99399.97
2022-09-15T09:55:18.412Z,99394.56
2022-09-15T09:58:25.729Z,99393.66
2022-09-15T10:01:28.869Z,99395.12
2022-09-15T10:04:31.941Z,99382.28
2022-09-15T10:07:41.201Z,99389.19
2022-09-15T10:10:55.971Z,99370.03
2022-09-15T10:13:58.900Z,99367.63
2022-09-15T10:17:10.137Z,99367.44
2022-09-15T10:20:50.591Z,99361.34
2022-09-15T10:23:53.747Z,99354.75
2022-09-15T10:27:27.246Z,99338.84
2022-09-15T10:30:30.532Z,99328.13
2022-09-15T10:33:35.151Z,99324.53
2022-09-15T10:36:38.458Z,99321.94
2022-09-15T10:39:55.007Z,99324.94
2022-09-15T10:43:10.516Z,99327.84
2022-09-15T10:46:24.020Z,99343.47
2022-09-15T10:49:37.621Z,99339.72
2022-09-15T10:53:14.280Z,99346.91
2022-09-15T10:56:44.325Z,99336.44
2022-09-15T11:00:18.982Z,99340.13
2022-09-15T11:03:46.988Z,99335.81
2022-09-15T11:07:20.659Z,99343.41
2022-09-15T11:11:06.367Z,99324.78
2022-09-15T11:14:34.783Z,99334.78
2022-09-15T11:18:14.558Z,99325.97
2022-09-15T11:21:23.363Z,99330.13
2022-09-15T11:24:30.057Z,99329.47
2022-09-15T11:27:54.066Z,99324.28
2022-09-15T11:31:09.500Z,99319.09
2022-09-15T11:34:26.973Z,99316.94
2022-09-15T11:37:45.878Z,99310.19
2022-09-15T11:41:06.231Z,99313.69
2022-09-15T11:44:22.316Z,99314.28
2022-09-15T11:47:30.921Z,99309.47
2022-09-15T11:50:39.497Z,99293.47
2022-09-15T11:54:04.512Z,99276.41
2022-09-15T11:57:21.195Z,99269.66
2022-09-15T12:00:24.518Z,99251.09
2022-09-15T12:03:40.145Z,99241.78
2022-09-15T12:06:55.337Z,99254.09
2022-09-15T12:10:06.851Z,99262.91
2022-09-15T12:13:21.518Z,99261.66
2022-09-15T12:16:26.386Z,99273.69
2022-09-15T12:19:33.426Z,99276.16
2022-09-15T12:22:59.183Z,99271.56
2022-09-15T12:26:14.204Z,99263.94
2022-09-15T12:29:26.513Z,99255.25
2022-09-15T12:32:35.091Z,99247.69
2022-09-15T12:35:38.328Z,99255.22
2022-09-15T12:38:48.157Z,99253.87
2022-09-15T12:42:00.351Z,99261.56
2022-09-15T12:45:29.573Z,99245.84
2022-09-15T12:48:35.736Z,99241.22
2022-09-15T12:51:38.595Z,99246.47
2022-09-15T12:54:45.283Z,99246.13
2022-09-15T12:57:54.555Z,99227.91
2022-09-15T13:01:31.472Z,99240.25
2022-09-15T13:04:52.602Z,99278.56
2022-09-15T13:07:57.591Z,99282.75
2022-09-15T13:11:15.071Z,99263.09
2022-09-15T13:14:34.341Z,99267.41
2022-09-15T13:17:43.242Z,99275.03
2022-09-15T13:20:55.031Z,99278.59
2022-09-15T13:23:58.211Z,99289.94
2022-09-15T13:27:02.312Z,99271.16
2022-09-15T13:30:20.557Z,99278.72
2022-09-15T13:33:23.955Z,99264.88
2022-09-15T13:40:59.052Z,99291.69
2022-09-15T13:44:04.440Z,99316.88
2022-09-15T13:48:05.899Z,99307.47
2022-09-15T13:51:34.340Z,99304.16
2022-09-15T13:54:37.695Z,99289.38
2022-09-15T14:01:12.489Z,99291.94
2022-09-15T14:04:19.251Z,99303.28
2022-09-15T14:07:25.863Z,99278.28
2022-09-15T14:10:33.445Z,99264.63
2022-09-15T14:13:40.847Z,99287.69
2022-09-15T14:16:49.586Z,99310.06
2022-09-15T14:19:54.891Z,99281.31
2022-09-15T14:22:59.879Z,99264.38
2022-09-15T14:26:02.988Z,99292.41
2022-09-15T14:29:07.183Z,99285.25
2022-09-15T14:32:17.408Z,99267.00
2022-09-15T14:35:24.285Z,99264.69
2022-09-15T14:38:27.115Z,99275.13
2022-09-15T14:41:32.891Z,99289.91
2022-09-15T14:48:07.393Z,99331.66
2022-09-15T14:51:25.737Z,99307.50
2022-09-15T14:54:36.927Z,99308.28
2022-09-15T14:57:45.805Z,99299.47
2022-09-15T15:01:15.637Z,99305.56
2022-09-15T15:04:36.774Z,99340.63
2022-09-15T15:07:40.523Z,99357.22
2022-09-15T15:10:43.275Z,99336.06
2022-09-15T15:13:50.770Z,99306.38
2022-09-15T15:17:03.034Z,99307.06
2022-09-15T15:20:06.219Z,99304.16
2022-09-15T15:23:20.628Z,99281.78
2022-09-15T15:26:35.468Z,99261.06
2022-09-15T15:29:43.495Z,99264.09
2022-09-15T15:32:46.818Z,99263.97
2022-09-15T15:36:02.509Z,99257.75
2022-09-15T15:39:07.559Z,99289.09
2022-09-15T15:42:15.917Z,99325.13
2022-09-15T15:45:24.842Z,99327.75
2022-09-15T15:48:32.837Z,99326.25
2022-09-15T15:51:41.090Z,99311.62
2022-09-15T15:54:43.629Z,99289.47
2022-09-15T15:57:52.376Z,99270.84
2022-09-15T16:00:56.950Z,99267.75
2022-09-15T16:04:00.092Z,99270.78
2022-09-15T16:07:02.856Z,99274.38
2022-09-15T16:10:07.060Z,99267.91
2022-09-15T16:13:14.482Z,99256.00
2022-09-15T16:16:19.614Z,99246.91
2022-09-15T16:19:22.300Z,99223.28
2022-09-15T16:22:25.337Z,99219.69
2022-09-15T16:25:34.191Z,99219.94
2022-09-15T16:28:36.959Z,99222.97
2022-09-15T16:31:39.887Z,99222.50
2022-09-15T16:34:42.608Z,99224.25
2022-09-15T16:37:45.159Z,99234.47
2022-09-15T16:40:49.537Z,99228.59
2022-09-15T16:43:53.375Z,99231.78
2022-09-15T16:46:56.514Z,99237.75
2022-09-15T16:49:59.672Z,99238.34
2022-09-15T16:53:03.200Z,99259.38
2022-09-15T16:56:07.838Z,99270.44
2022-09-15T16:59:10.642Z,99264.09
2022-09-15T17:02:14.211Z,99258.03
2022-09-15T17:05:52.638Z,99267.28
2022-09-15T17:08:58.152Z,99266.88
2022-09-15T17:12:01.031Z,99265.22
2022-09-15T17:15:21.220Z,99273.50
2022-09-15T17:18:24.394Z,99272.91
2022-09-15T17:21:27.292Z,99277.63
2022-09-15T17:24:30.035Z,99273.47
2022-09-15T17:27:32.610Z,99263.13
2022-09-15T17:30:35.889Z,99266.97
2022-09-15T17:33:38.372Z,99268.09
2022-09-15T17:36:41.271Z,99252.91
2022-09-15T17:39:44.170Z,99252.19
2022-09-15T17:42:47.847Z,99252.50
2022-09-15T17:45:51.762Z,99249.16
2022-09-15T17:48:54.630Z,99250.81
2022-09-15T17:51:57.103Z,99255.09
2022-09-15T17:55:01.075Z,99246.13
2022-09-15T17:58:04.290Z,99248.91
2022-09-15T18:01:07.905Z,99262.97
2022-09-15T18:04:11.372Z,99252.63
2022-09-15T18:07:13.951Z,99249.88
2022-09-15T18:10:17.942Z,99257.72
2022-09-15T18:13:27.148Z,99258.81
2022-09-15T18:16:29.951Z,99255.66
2022-09-15T18:19:32.568Z,99250.53
2022-09-15T18:22:35.476Z,99261.84
2022-09-15T18:25:38.047Z,99260.31
2022-09-15T18:28:41.190Z,99265.72
2022-09-15T18:31:44.901Z,99265.03
2022-09-15T18:34:49.060Z,99267.06
2022-09-15T18:37:57.440Z,99267.06
2022-09-15T18:41:01.427Z,99262.09
2022-09-15T18:44:04.065Z,99264.19
2022-09-15T18:47:06.910Z,99266.94
2022-09-15T18:50:12.235Z,99278.13
2022-09-15T18:53:15.234Z,99284.16
2022-09-15T18:56:17.816Z,99287.50
2022-09-15T18:59:20.695Z,99285.72
2022-09-15T19:02:23.567Z,99291.91
2022-09-15T19:05:27.933Z,99292.03
2022-09-15T19:08:30.597Z,99295.78
2022-09-15T19:11:34.002Z,99302.94
2022-09-15T19:14:36.522Z,99309.13
2022-09-15T19:17:40.802Z,99320.84
2022-09-15T19:20:43.885Z,99302.63
2022-09-15T19:23:49.330Z,99291.63
2022-09-15T19:26:52.018Z,99297.97
2022-09-15T19:29:54.907Z,99303.22
2022-09-15T19:32:57.498Z,99287.19
2022-09-15T19:36:26.826Z,99296.84
2022-09-15T19:39:28.025Z,99312.47
2022-09-15T19:42:30.917Z,99317.28
2022-09-15T19:45:34.001Z,99312.03
2022-09-15T19:48:39.882Z,99315.63
2022-09-15T19:51:44.855Z,99309.28
2022-09-15T19:54:47.928Z,99310.66
2022-09-15T19:57:50.824Z,99327.06
2022-09-15T20:00:55.480Z,99320.84
2022-09-15T20:03:58.707Z,99323.75
2022-09-15T20:07:01.114Z,99326.62
2022-09-15T20:10:04.548Z,99317.94
2022-09-15T20:13:07.583Z,99325.09
2022-09-15T20:16:20.688Z,99317.94
2022-09-15T20:19:23.288Z,99323.75
2022-09-15T20:22:26.699Z,99329.25
2022-09-15T20:25:29.177Z,99335.72
2022-09-15T20:28:32.856Z,99348.84
2022-09-15T20:31:35.344Z,99345.69
2022-09-15T20:34:38.206Z,99344.56
2022-09-15T20:37:42.015Z,99352.59
2022-09-15T20:40:45.109Z,99344.16
2022-09-15T20:43:47.634Z,99357.38
2022-09-15T20:46:50.339Z,99355.59
2022-09-15T20:49:52.895Z,99358.38
2022-09-15T20:52:55.655Z,99368.00
2022-09-15T20:55:58.440Z,99372.16
2022-09-15T20:59:01.596Z,99385.84
2022-09-15T21:02:06.237Z,99384.41
2022-09-15T21:05:09.166Z,99376.72
2022-09-15T21:08:12.474Z,99380.19
2022-09-15T21:11:16.995Z,99386.94
2022-09-15T21:14:19.461Z,99396.78
2022-09-15T21:17:23.088Z,99392.91
2022-09-15T21:20:27.542Z,99390.87
2022-09-15T21:23:36.116Z,99390.06
2022-09-15T21:27:01.210Z,99383.56
2022-09-15T21:30:05.050Z,99385.00
2022-09-15T21:33:08.237Z,99385.22
2022-09-15T21:36:22.043Z,99391.81
2022-09-15T21:39:24.576Z,99382.22
2022-09-15T21:42:27.390Z,99385.50
2022-09-15T21:45:30.280Z,99384.28
2022-09-15T21:48:34.985Z,99384.00
2022-09-15T21:51:37.513Z,99391.03
2022-09-15T21:54:40.253Z,99396.59
2022-09-15T21:57:42.781Z,99406.09
2022-09-15T22:00:47.333Z,99414.66
2022-09-15T22:04:06.992Z,99427.06
2022-09-15T22:07:09.726Z,99434.41
2022-09-15T22:10:12.850Z,99436.31
2022-09-15T22:13:15.275Z,99444.28
2022-09-15T22:16:20.853Z,99452.16
2022-09-15T22:19:23.571Z,99456.03
2022-09-15T22:22:26.369Z,99471.47
2022-09-15T22:25:29.135Z,99471.75
2022-09-15T22:28:32.365Z,99467.31
2022-09-15T22:31:35.476Z,99459.87
2022-09-15T22:34:38.244Z,99459.72
2022-09-15T22:37:40.757Z,99467.31
2022-09-15T22:40:43.607Z,99460.66
2022-09-15T22:43:48.013Z,99471.84
2022-09-15T22:46:51.395Z,99471.88
2022-09-15T22:49:54.069Z,99484.41
2022-09-15T22:52:56.854Z,99491.72
2022-09-15T22:56:05.757Z,99500.69
2022-09-15T22:59:08.593Z,99510.06
2022-09-15T23:02:11.354Z,99507.31
2022-09-15T23:05:14.407Z,99509.19
2022-09-15T23:08:16.890Z,99521.09
2022-09-15T23:11:20.202Z,99522.88
2022-09-15T23:14:23.874Z,99535.53
2022-09-15T23:17:27.427Z,99550.00
2022-09-15T23:20:29.993Z,99544.66
2022-09-15T23:23:34.277Z,99550.25
2022-09-15T23:26:36.804Z,99553.06
2022-09-15T23:29:39.852Z,99555.56
2022-09-15T23:32:42.539Z,99556.09
2022-09-15T23:35:45.922Z,99559.97
2022-09-15T23:38:49.632Z,99556.78
2022-09-15T23:41:52.516Z,99556.09
2022-09-15T23:44:55.108Z,99550.00
2022-09-15T23:47:57.920Z,99557.44
2022-09-15T23:51:00.941Z,99566.53
2022-09-15T23:54:04.711Z,99564.84
2022-09-15T23:57:08.844Z,99569.38
